RJEO(METAR)
02/27 14:00
RJEO 270500Z 23007KT 9999 FEW030 BKN040 M01/M09 Q1027 RMK A3034=
戻る
トップページへ戻る
IMOC Co,.Ltd.